createdAt,value
2023-04-08T00:02:05.887Z,24.65
2023-04-08T00:04:33.891Z,25.30
2023-04-08T00:07:01.666Z,28.25
2023-04-08T00:09:29.360Z,23.08
2023-04-08T00:11:57.678Z,20.83
2023-04-08T00:14:25.490Z,22.70
2023-04-08T00:16:54.939Z,25.42
2023-04-08T00:19:22.722Z,26.77
2023-04-08T00:21:51.153Z,24.17
2023-04-08T00:24:18.890Z,29.35
2023-04-08T00:26:46.633Z,25.95
2023-04-08T00:29:15.068Z,24.02
2023-04-08T00:31:42.872Z,24.90
2023-04-08T00:34:12.045Z,25.23
2023-04-08T00:36:40.161Z,29.35
2023-04-08T00:39:07.901Z,31.38
2023-04-08T00:41:36.498Z,25.88
2023-04-08T00:44:04.348Z,25.65
2023-04-08T00:46:32.515Z,26.17
2023-04-08T00:49:02.267Z,37.60
2023-04-08T00:51:32.189Z,29.58
2023-04-08T00:54:00.661Z,28.17
2023-04-08T00:56:28.916Z,33.63
2023-04-08T00:58:56.636Z,27.40
2023-04-08T01:01:33.740Z,26.38
2023-04-08T01:04:11.044Z,24.13
2023-04-08T01:06:46.892Z,30.75
2023-04-08T01:09:15.160Z,27.90
2023-04-08T01:11:45.703Z,28.75
2023-04-08T01:14:18.732Z,28.98
2023-04-08T01:16:47.620Z,26.80
2023-04-08T01:19:29.831Z,28.67
2023-04-08T01:22:06.694Z,26.40
2023-04-08T01:24:40.149Z,25.33
2023-04-08T01:27:11.630Z,30.25
2023-04-08T01:29:40.574Z,25.80
2023-04-08T01:32:09.200Z,29.38
2023-04-08T01:34:39.455Z,26.65
2023-04-08T01:37:08.388Z,25.20
2023-04-08T01:39:37.252Z,27.65
2023-04-08T01:42:05.774Z,24.27
2023-04-08T01:44:37.093Z,26.80
2023-04-08T01:47:05.202Z,29.00
2023-04-08T01:49:34.137Z,34.50
2023-04-08T01:52:02.466Z,25.67
2023-04-08T01:54:30.209Z,27.13
2023-04-08T01:56:59.602Z,35.40
2023-04-08T01:59:32.603Z,33.72
2023-04-08T02:02:03.282Z,29.58
2023-04-08T02:04:31.141Z,28.80
2023-04-08T02:06:59.424Z,28.88
2023-04-08T02:09:27.360Z,29.33
2023-04-08T02:11:56.943Z,27.77
2023-04-08T02:14:26.151Z,27.42
2023-04-08T02:16:55.981Z,28.00
2023-04-08T02:19:32.706Z,27.70
2023-04-08T02:22:10.461Z,27.20
2023-04-08T02:24:40.213Z,34.55
2023-04-08T02:27:11.519Z,26.95
2023-04-08T02:29:42.339Z,25.50
2023-04-08T02:32:15.969Z,26.88
2023-04-08T02:34:46.005Z,31.45
2023-04-08T02:37:13.824Z,36.00
2023-04-08T02:39:41.520Z,36.75
2023-04-08T02:42:11.726Z,41.22
2023-04-08T02:44:39.793Z,35.97
2023-04-08T02:47:07.548Z,31.98
2023-04-08T02:49:35.548Z,34.80
2023-04-08T02:52:04.716Z,43.72
2023-04-08T02:54:32.465Z,26.00
2023-04-08T02:57:00.191Z,25.83
2023-04-08T02:59:28.038Z,34.75
2023-04-08T03:01:55.819Z,32.17
2023-04-08T03:04:23.554Z,25.45
2023-04-08T03:06:51.353Z,35.75
2023-04-08T03:09:20.566Z,43.08
2023-04-08T03:11:53.074Z,30.50
2023-04-08T03:16:48.784Z,38.78
2023-04-08T03:19:16.724Z,28.38
2023-04-08T03:21:44.728Z,28.65
2023-04-08T03:24:12.490Z,41.15
2023-04-08T03:26:41.564Z,31.60
2023-04-08T03:29:10.011Z,46.65
2023-04-08T03:31:38.067Z,44.22
2023-04-08T03:34:05.813Z,34.67
2023-04-08T03:36:33.731Z,47.58
2023-04-08T03:39:01.536Z,32.58
2023-04-08T03:41:29.297Z,32.75
2023-04-08T03:43:59.209Z,31.27
2023-04-08T03:46:27.062Z,31.13
2023-04-08T03:48:54.847Z,32.38
2023-04-08T03:51:22.599Z,57.47
2023-04-08T03:53:50.262Z,37.33
2023-04-08T03:56:18.096Z,33.38
2023-04-08T03:58:45.858Z,40.10
2023-04-08T04:01:15.260Z,37.70
2023-04-08T04:03:43.194Z,53.25
2023-04-08T04:06:11.163Z,32.95
2023-04-08T04:08:38.774Z,36.20
2023-04-08T04:11:07.124Z,43.95
2023-04-08T04:13:34.808Z,49.08
2023-04-08T04:16:02.540Z,35.83
2023-04-08T04:18:31.695Z,38.47
2023-04-08T04:20:59.368Z,36.03
2023-04-08T04:23:27.141Z,29.10
2023-04-08T04:25:54.799Z,29.70
2023-04-08T04:28:22.477Z,31.75
2023-04-08T04:30:50.171Z,40.40
2023-04-08T04:33:17.956Z,26.58
2023-04-08T04:35:47.157Z,30.15
2023-04-08T04:38:14.887Z,33.25
2023-04-08T04:40:42.604Z,49.20
2023-04-08T04:43:10.408Z,48.55
2023-04-08T04:45:38.068Z,34.20
2023-04-08T04:48:06.186Z,25.58
2023-04-08T04:50:34.010Z,34.35
2023-04-08T04:53:03.189Z,39.08
2023-04-08T04:55:30.954Z,26.38
2023-04-08T04:57:58.604Z,31.90
2023-04-08T05:00:26.382Z,29.85
2023-04-08T05:02:54.405Z,22.77
2023-04-08T05:05:22.301Z,21.63
2023-04-08T05:07:50.045Z,19.25
2023-04-08T05:10:19.220Z,19.58
2023-04-08T05:12:46.897Z,25.67
2023-04-08T05:15:14.675Z,20.10
2023-04-08T05:17:42.474Z,25.30
2023-04-08T05:20:10.414Z,40.83
2023-04-08T05:22:38.261Z,20.77
2023-04-08T05:25:06.786Z,21.55
2023-04-08T05:27:36.441Z,22.35
2023-04-08T05:30:04.850Z,26.20
2023-04-08T05:32:32.763Z,29.70
2023-04-08T05:35:03.463Z,22.85
2023-04-08T05:37:31.433Z,19.90
2023-04-08T05:39:59.168Z,29.02
2023-04-08T05:42:27.134Z,33.72
2023-04-08T05:44:56.491Z,25.30
2023-04-08T05:47:24.273Z,45.60
2023-04-08T05:49:52.277Z,38.15
2023-04-08T05:52:20.054Z,53.42
2023-04-08T05:54:47.875Z,45.42
2023-04-08T05:57:16.795Z,24.88
2023-04-08T05:59:45.002Z,36.13
2023-04-08T06:02:14.175Z,39.55
2023-04-08T06:04:42.305Z,42.90
2023-04-08T06:07:10.129Z,40.63
2023-04-08T06:09:38.377Z,35.30
2023-04-08T06:12:06.709Z,38.67
2023-04-08T06:14:34.476Z,39.92
2023-04-08T06:17:02.331Z,44.88
2023-04-08T06:19:31.597Z,32.85
2023-04-08T06:21:59.798Z,37.80
2023-04-08T06:24:27.766Z,43.67
2023-04-08T06:26:55.475Z,25.83
2023-04-08T06:29:23.875Z,31.92
2023-04-08T06:31:51.808Z,38.50
2023-04-08T06:34:19.547Z,35.17
2023-04-08T06:36:50.325Z,34.60
2023-04-08T06:39:19.425Z,31.83
2023-04-08T06:41:47.185Z,32.47
2023-04-08T06:44:14.951Z,30.42
2023-04-08T06:46:42.689Z,31.63
2023-04-08T06:49:10.532Z,24.98
2023-04-08T06:51:38.321Z,26.40
2023-04-08T06:54:07.456Z,29.77
2023-04-08T06:56:35.437Z,28.73
2023-04-08T06:59:03.613Z,27.08
2023-04-08T07:01:32.172Z,31.73
2023-04-08T07:04:02.216Z,40.63
2023-04-08T07:06:30.301Z,34.83
2023-04-08T07:08:58.149Z,28.75
2023-04-08T07:11:27.658Z,26.73
2023-04-08T07:13:55.476Z,33.38
2023-04-08T07:16:23.265Z,29.08
2023-04-08T07:18:51.994Z,23.45
2023-04-08T07:21:20.064Z,25.33
2023-04-08T07:23:47.961Z,31.30
2023-04-08T07:26:15.758Z,23.92
2023-04-08T07:28:45.131Z,24.52
2023-04-08T07:31:14.647Z,26.80
2023-04-08T07:33:42.555Z,21.77
2023-04-08T07:36:11.518Z,27.95
2023-04-08T07:38:39.553Z,21.30
2023-04-08T07:41:07.437Z,24.60
2023-04-08T07:43:37.159Z,20.83
2023-04-08T07:46:09.100Z,24.27
2023-04-08T07:48:37.462Z,22.55
2023-04-08T07:51:08.030Z,20.58
2023-04-08T07:53:38.792Z,20.63
2023-04-08T07:56:12.818Z,21.42
2023-04-08T07:58:41.490Z,23.05
2023-04-08T08:01:18.903Z,19.23
2023-04-08T08:03:48.011Z,20.15
2023-04-08T08:06:16.584Z,21.02
2023-04-08T08:08:44.530Z,21.40
2023-04-08T08:11:12.424Z,19.48
2023-04-08T08:13:40.474Z,24.05
2023-04-08T08:16:11.432Z,21.70
2023-04-08T08:18:41.608Z,21.58
2023-04-08T08:21:10.152Z,24.58
2023-04-08T08:23:38.546Z,23.20
2023-04-08T08:26:07.685Z,22.08
2023-04-08T08:28:35.631Z,21.73
2023-04-08T08:31:03.440Z,21.05
2023-04-08T08:33:31.281Z,19.05
2023-04-08T08:36:00.509Z,17.50
2023-04-08T08:38:32.155Z,17.83
2023-04-08T08:41:00.913Z,17.00
2023-04-08T08:43:30.323Z,18.08
2023-04-08T08:45:58.138Z,18.38
2023-04-08T08:48:26.054Z,18.35
2023-04-08T08:50:53.986Z,17.75
2023-04-08T08:53:32.743Z,18.92
2023-04-08T08:58:33.039Z,18.85
2023-04-08T09:01:01.088Z,18.73
2023-04-08T09:03:30.224Z,18.10
2023-04-08T09:06:00.108Z,19.50
2023-04-08T09:08:32.284Z,20.08
2023-04-08T09:11:13.488Z,20.58
2023-04-08T09:13:41.713Z,17.73
2023-04-08T09:16:10.987Z,18.80
2023-04-08T09:18:39.970Z,20.17
2023-04-08T09:21:08.637Z,17.85
2023-04-08T09:23:43.359Z,18.75
2023-04-08T09:26:13.146Z,17.65
2023-04-08T09:28:42.380Z,16.88
2023-04-08T09:31:21.690Z,17.83
2023-04-08T09:33:50.384Z,17.10
2023-04-08T09:36:18.609Z,17.10
2023-04-08T09:38:49.057Z,17.27
2023-04-08T09:41:18.168Z,17.45
2023-04-08T09:43:50.606Z,16.92
2023-04-08T09:46:23.384Z,16.77
2023-04-08T09:51:21.363Z,16.55
2023-04-08T09:53:57.587Z,17.17
2023-04-08T09:56:28.754Z,16.50
2023-04-08T09:59:00.862Z,15.63
2023-04-08T10:01:34.571Z,17.00
2023-04-08T10:04:06.482Z,15.23
2023-04-08T10:06:35.882Z,14.57
2023-04-08T10:09:05.924Z,13.88
2023-04-08T10:11:36.430Z,14.40
2023-04-08T10:14:04.517Z,12.68
2023-04-08T10:16:32.300Z,12.20
2023-04-08T10:19:00.156Z,12.35
2023-04-08T10:21:35.621Z,11.38
2023-04-08T10:24:08.136Z,10.63
2023-04-08T10:29:33.350Z,10.25
2023-04-08T10:32:02.850Z,10.25
2023-04-08T10:34:30.924Z,10.50
2023-04-08T10:37:03.750Z,10.30
2023-04-08T10:39:33.468Z,10.05
2023-04-08T10:42:02.818Z,10.30
2023-04-08T10:44:30.709Z,11.18
2023-04-08T10:46:58.520Z,13.13
2023-04-08T10:49:33.743Z,10.57
2023-04-08T10:52:02.084Z,10.60
2023-04-08T10:54:29.893Z,9.77
2023-04-08T10:56:59.949Z,10.15
2023-04-08T10:59:32.919Z,10.02
2023-04-08T11:02:01.522Z,10.25
2023-04-08T11:04:29.596Z,10.27
2023-04-08T11:06:58.401Z,11.30
2023-04-08T11:09:26.310Z,10.38
2023-04-08T11:11:55.025Z,10.60
2023-04-08T11:14:25.381Z,10.10
2023-04-08T11:16:53.382Z,9.00
2023-04-08T11:19:21.466Z,9.55
2023-04-08T11:21:49.511Z,10.65
2023-04-08T11:24:17.619Z,10.13
2023-04-08T11:26:45.799Z,8.90
2023-04-08T11:29:15.218Z,8.52
2023-04-08T11:31:44.915Z,7.70
2023-04-08T11:34:12.928Z,7.57
2023-04-08T11:36:41.951Z,8.40
2023-04-08T11:39:13.013Z,8.35
2023-04-08T11:41:41.389Z,8.15
2023-04-08T11:44:09.898Z,8.82
2023-04-08T11:46:42.452Z,9.27
2023-04-08T11:49:15.921Z,8.75
2023-04-08T11:51:56.439Z,8.65
2023-04-08T11:54:28.888Z,8.77
2023-04-08T11:59:28.976Z,8.07
2023-04-08T12:01:57.742Z,7.75
2023-04-08T12:04:27.254Z,8.18
2023-04-08T12:06:56.852Z,8.95
2023-04-08T12:09:25.986Z,9.27
2023-04-08T12:11:53.710Z,8.25
2023-04-08T12:14:26.805Z,8.52
2023-04-08T12:16:56.160Z,7.80
2023-04-08T12:19:23.951Z,8.30
2023-04-08T12:21:53.221Z,8.52
2023-04-08T12:24:21.542Z,8.40
2023-04-08T12:26:49.411Z,8.45
2023-04-08T12:29:17.252Z,8.50
2023-04-08T12:31:45.585Z,9.10
2023-04-08T12:34:13.597Z,8.90
2023-04-08T12:36:41.912Z,8.82
2023-04-08T12:39:11.331Z,8.63
2023-04-08T12:41:39.098Z,8.48
2023-04-08T12:44:07.001Z,8.30
2023-04-08T12:46:34.989Z,8.15
2023-04-08T12:49:05.113Z,7.90
2023-04-08T12:51:33.774Z,8.30
2023-04-08T12:54:02.065Z,8.05
2023-04-08T12:56:31.594Z,8.05
2023-04-08T12:58:59.949Z,8.05
2023-04-08T13:01:28.264Z,8.10
2023-04-08T13:03:57.137Z,8.15
2023-04-08T13:06:25.994Z,7.50
2023-04-08T13:08:53.938Z,7.80
2023-04-08T13:11:22.585Z,8.13
2023-04-08T13:13:52.289Z,8.27
2023-04-08T13:16:20.512Z,7.82
2023-04-08T13:18:48.373Z,8.13
2023-04-08T13:21:16.566Z,7.85
2023-04-08T13:23:44.420Z,7.65
2023-04-08T13:26:12.480Z,8.30
2023-04-08T13:28:53.651Z,8.93
2023-04-08T13:31:25.949Z,9.20
2023-04-08T13:33:56.980Z,8.23
2023-04-08T13:36:26.008Z,8.27
2023-04-08T13:38:53.849Z,8.13
2023-04-08T13:41:22.142Z,8.27
2023-04-08T13:43:50.506Z,7.80
2023-04-08T13:46:18.754Z,8.40
2023-04-08T13:48:47.983Z,8.32
2023-04-08T13:51:16.353Z,7.70
2023-04-08T13:53:44.129Z,8.38
2023-04-08T13:56:14.160Z,7.88
2023-04-08T13:58:41.995Z,8.60
2023-04-08T14:01:09.953Z,9.23
2023-04-08T14:03:38.034Z,9.10
2023-04-08T14:06:07.958Z,9.60
2023-04-08T14:08:36.465Z,9.38
2023-04-08T14:11:04.356Z,8.95
2023-04-08T14:13:33.052Z,9.35
2023-04-08T14:16:02.306Z,8.63
2023-04-08T14:18:30.162Z,8.75
2023-04-08T14:20:58.096Z,9.27
2023-04-08T14:23:27.274Z,8.90
2023-04-08T14:25:55.028Z,9.13
2023-04-08T14:28:22.690Z,9.93
2023-04-08T14:30:50.695Z,9.32
2023-04-08T14:33:18.979Z,9.50
2023-04-08T14:35:47.827Z,11.05
2023-04-08T14:38:15.807Z,9.57
2023-04-08T14:40:45.051Z,9.95
2023-04-08T14:43:13.540Z,10.15
2023-04-08T14:45:42.364Z,9.75
2023-04-08T14:48:10.339Z,10.55
2023-04-08T14:50:38.301Z,10.68
2023-04-08T14:53:06.206Z,10.70
2023-04-08T14:55:34.037Z,10.52
2023-04-08T14:58:03.248Z,11.82
2023-04-08T15:00:31.101Z,10.88
2023-04-08T15:02:59.206Z,11.68
2023-04-08T15:05:27.598Z,12.13
2023-04-08T15:07:55.498Z,11.25
2023-04-08T15:10:23.400Z,11.70
2023-04-08T15:12:51.210Z,11.55
2023-04-08T15:15:20.647Z,13.07
2023-04-08T15:17:51.000Z,12.25
2023-04-08T15:20:20.229Z,12.40
2023-04-08T15:22:48.118Z,12.63
2023-04-08T15:25:16.119Z,11.90
2023-04-08T15:27:44.058Z,13.95
2023-04-08T15:30:12.602Z,12.30
2023-04-08T15:32:42.448Z,12.95
2023-04-08T15:35:11.099Z,12.18
2023-04-08T15:37:38.849Z,11.88
2023-04-08T15:40:08.215Z,12.45
2023-04-08T15:42:36.696Z,12.98
2023-04-08T15:45:05.308Z,13.02
2023-04-08T15:47:34.405Z,13.70
2023-04-08T15:50:03.724Z,14.55
2023-04-08T15:52:35.314Z,14.15
2023-04-08T15:55:03.642Z,15.03
2023-04-08T15:57:32.536Z,15.60
2023-04-08T16:00:00.526Z,16.13
2023-04-08T16:02:28.678Z,16.55
2023-04-08T16:04:56.621Z,15.93
2023-04-08T16:07:25.889Z,24.98
2023-04-08T16:09:53.727Z,16.40
2023-04-08T16:12:22.000Z,20.08
2023-04-08T16:14:49.834Z,20.63
2023-04-08T16:17:18.071Z,20.65
2023-04-08T16:19:46.102Z,18.65
2023-04-08T16:22:14.036Z,19.02
2023-04-08T16:24:43.253Z,22.13
2023-04-08T16:27:11.743Z,20.88
2023-04-08T16:29:39.771Z,22.83
2023-04-08T16:32:08.917Z,22.13
2023-04-08T16:34:39.771Z,23.75
2023-04-08T16:37:07.694Z,27.65
2023-04-08T16:39:35.765Z,29.95
2023-04-08T16:42:05.281Z,29.88
2023-04-08T16:44:33.568Z,25.88
2023-04-08T16:47:01.650Z,26.52
2023-04-08T16:49:29.466Z,25.00
2023-04-08T16:51:57.745Z,23.67
2023-04-08T16:54:25.649Z,22.98
2023-04-08T16:56:53.380Z,26.08
2023-04-08T16:59:23.088Z,26.23
2023-04-08T17:01:54.429Z,27.67
2023-04-08T17:04:22.268Z,30.73
2023-04-08T17:06:50.225Z,27.38
2023-04-08T17:09:18.168Z,29.38
2023-04-08T17:11:46.040Z,28.30
2023-04-08T17:14:13.866Z,28.48
2023-04-08T17:16:43.114Z,29.40
2023-04-08T17:19:13.215Z,30.10
2023-04-08T17:21:42.693Z,29.25
2023-04-08T17:24:18.032Z,32.05
2023-04-08T17:26:46.860Z,33.42
2023-04-08T17:29:14.728Z,31.50
2023-04-08T17:31:44.667Z,30.15
2023-04-08T17:34:12.665Z,33.08
2023-04-08T17:36:40.525Z,30.33
2023-04-08T17:39:08.361Z,29.85
2023-04-08T17:41:40.440Z,26.95
2023-04-08T17:44:08.969Z,24.58
2023-04-08T17:46:37.034Z,25.77
2023-04-08T17:49:06.264Z,25.65
2023-04-08T17:51:34.322Z,26.73
2023-04-08T17:54:02.276Z,27.48
2023-04-08T17:56:33.449Z,28.63
2023-04-08T17:59:06.212Z,28.30
2023-04-08T18:01:34.486Z,26.75
2023-04-08T18:04:02.609Z,26.30
2023-04-08T18:06:32.534Z,25.55
2023-04-08T18:09:00.770Z,27.17
2023-04-08T18:11:28.644Z,28.92
2023-04-08T18:13:56.563Z,28.65
2023-04-08T18:16:24.521Z,28.00
2023-04-08T18:18:52.375Z,28.27
2023-04-08T18:21:21.927Z,27.75
2023-04-08T18:23:52.165Z,30.40
2023-04-08T18:26:20.168Z,30.27
2023-04-08T18:28:47.950Z,29.38
2023-04-08T18:31:15.729Z,29.00
2023-04-08T18:33:43.678Z,27.90
2023-04-08T18:36:13.888Z,30.30
2023-04-08T18:38:41.864Z,27.13
2023-04-08T18:41:14.439Z,27.55
2023-04-08T18:43:42.237Z,26.23
2023-04-08T18:46:10.137Z,24.50
2023-04-08T18:48:38.264Z,25.33
2023-04-08T18:51:06.398Z,24.30
2023-04-08T18:53:34.113Z,26.13
2023-04-08T18:56:02.025Z,24.23
2023-04-08T18:58:31.887Z,24.80
2023-04-08T19:00:59.650Z,24.33
2023-04-08T19:03:27.480Z,24.55
2023-04-08T19:05:55.489Z,25.02
2023-04-08T19:08:23.299Z,26.48
2023-04-08T19:10:51.482Z,26.10
2023-04-08T19:13:19.259Z,25.55
2023-04-08T19:15:48.488Z,25.85
2023-04-08T19:18:16.253Z,25.17
2023-04-08T19:20:44.143Z,28.10
2023-04-08T19:23:12.027Z,26.65
2023-04-08T19:25:39.837Z,27.48
2023-04-08T19:28:09.144Z,28.27
2023-04-08T19:30:38.635Z,29.90
2023-04-08T19:33:08.873Z,30.90
2023-04-08T19:35:36.827Z,29.25
2023-04-08T19:38:05.665Z,32.38
2023-04-08T19:40:34.179Z,31.63
2023-04-08T19:43:02.067Z,32.40
2023-04-08T19:45:29.832Z,29.42
2023-04-08T19:47:57.977Z,30.50
2023-04-08T19:50:27.956Z,31.40
2023-04-08T19:52:55.792Z,32.40
2023-04-08T19:55:23.818Z,30.70
2023-04-08T19:57:52.728Z,35.20
2023-04-08T20:00:20.532Z,36.70
2023-04-08T20:02:48.613Z,43.80
2023-04-08T20:05:17.661Z,35.58
2023-04-08T20:07:49.649Z,36.92
2023-04-08T20:10:17.607Z,37.20
2023-04-08T20:12:45.350Z,35.97
2023-04-08T20:15:23.559Z,37.28
2023-04-08T20:17:52.814Z,37.72
2023-04-08T20:20:21.545Z,38.45
2023-04-08T20:22:50.799Z,37.95
2023-04-08T20:25:18.683Z,37.20
2023-04-08T20:27:46.478Z,36.92
2023-04-08T20:30:14.352Z,39.80
2023-04-08T20:32:42.080Z,40.33
2023-04-08T20:35:10.939Z,40.88
2023-04-08T20:37:38.951Z,40.33
2023-04-08T20:40:13.671Z,38.60
2023-04-08T20:42:41.752Z,38.78
2023-04-08T20:45:11.027Z,44.42
2023-04-08T20:47:39.244Z,43.05
2023-04-08T20:50:08.962Z,43.13
2023-04-08T20:52:36.803Z,44.22
2023-04-08T20:55:05.159Z,45.65
2023-04-08T20:57:34.441Z,49.20
2023-04-08T21:00:06.370Z,48.50
2023-04-08T21:02:34.701Z,45.08
2023-04-08T21:05:02.614Z,42.85
2023-04-08T21:07:30.794Z,41.47
2023-04-08T21:09:58.475Z,42.80
2023-04-08T21:12:26.250Z,42.72
2023-04-08T21:14:55.410Z,41.45
2023-04-08T21:17:23.153Z,41.03
2023-04-08T21:19:50.917Z,43.17
2023-04-08T21:22:18.694Z,41.55
2023-04-08T21:24:46.399Z,43.50
2023-04-08T21:27:14.156Z,42.65
2023-04-08T21:29:41.918Z,41.15
2023-04-08T21:32:11.178Z,40.42
2023-04-08T21:34:38.896Z,39.72
2023-04-08T21:37:07.198Z,41.00
2023-04-08T21:39:34.951Z,39.05
2023-04-08T21:42:02.783Z,40.22
2023-04-08T21:44:30.860Z,40.75
2023-04-08T21:47:00.466Z,38.45
2023-04-08T21:49:31.602Z,41.05
2023-04-08T21:51:59.419Z,41.55
2023-04-08T21:54:27.218Z,41.60
2023-04-08T21:56:55.131Z,44.08
2023-04-08T21:59:22.859Z,43.22
2023-04-08T22:01:50.843Z,42.90
2023-04-08T22:04:19.610Z,42.45
2023-04-08T22:06:49.796Z,41.63
2023-04-08T22:09:17.683Z,40.40
2023-04-08T22:11:45.606Z,41.50
2023-04-08T22:14:13.553Z,37.42
2023-04-08T22:16:44.735Z,39.83
2023-04-08T22:19:12.461Z,40.60
2023-04-08T22:21:40.608Z,40.97
2023-04-08T22:24:09.791Z,37.20
2023-04-08T22:26:37.879Z,40.28
2023-04-08T22:29:05.684Z,38.10
2023-04-08T22:31:33.411Z,36.53
2023-04-08T22:34:01.137Z,37.70
2023-04-08T22:36:28.886Z,39.35
2023-04-08T22:38:56.643Z,37.60
2023-04-08T22:41:25.732Z,39.40
2023-04-08T22:43:53.417Z,37.80
2023-04-08T22:46:21.315Z,38.30
2023-04-08T22:48:49.836Z,37.22
2023-04-08T22:51:17.824Z,35.90
2023-04-08T22:53:45.530Z,36.33
2023-04-08T22:56:13.254Z,36.45
2023-04-08T22:58:42.448Z,35.38
2023-04-08T23:01:17.002Z,35.45
2023-04-08T23:03:45.518Z,34.45
2023-04-08T23:06:13.266Z,35.03
2023-04-08T23:08:41.707Z,36.15
2023-04-08T23:11:09.557Z,35.17
2023-04-08T23:13:37.617Z,35.42
2023-04-08T23:16:07.303Z,36.20
2023-04-08T23:18:35.374Z,35.33
2023-04-08T23:21:03.884Z,34.85
2023-04-08T23:23:31.585Z,35.30
2023-04-08T23:25:59.341Z,34.80
2023-04-08T23:28:27.031Z,33.63
2023-04-08T23:30:54.944Z,34.42
2023-04-08T23:33:24.053Z,32.45
2023-04-08T23:35:51.822Z,34.05
2023-04-08T23:38:19.502Z,30.77
2023-04-08T23:40:47.162Z,33.40
2023-04-08T23:43:14.924Z,33.40
2023-04-08T23:45:42.627Z,34.67
2023-04-08T23:48:10.444Z,33.92
2023-04-08T23:50:39.549Z,31.10
2023-04-08T23:53:07.268Z,32.78
2023-04-08T23:55:34.948Z,32.45
2023-04-08T23:58:02.906Z,30.52
